Acorn, Arkansas
Current Conditions -  °F | °C
As of 9:35 AM on Friday 19 Dec 2014 (Local Time) from KMEZ Reporting Station
Overcast Overcast  
Wind Chill: 39°   Ceiling: 400
Heat Index: 43°   Visibility: 7mi
Dew Point: 41°   Wind: 7mph
Humidity: 93%   Direction: 90°E
Pressure: 30.22"   Gusts: NA
Location:  34.592°N, 94.1901°W
Report Text: KMEZ 191535Z AUTO 09006KT 7SM OVC004 06/05 A3022 RMK AO2
Loading
Personal Weather Stations






























Interactive Weather Map New forecast layout! Learn more

10-Day Weather Forecast

Advertisements
Track Severe Weather on mobile